sensor_id;sensor_type;location;lat;lon;timestamp;pressure;altitude;pressure_sealevel;temperature;humidity
32642;BME280;19323;56.072;9.698;2023-02-28T00:01:27;102488.81;;;26.05;39.61
32642;BME280;19323;56.072;9.698;2023-02-28T00:03:52;102490.53;;;26.06;39.44
32642;BME280;19323;56.072;9.698;2023-02-28T00:06:17;102490.63;;;26.05;39.63
32642;BME280;19323;56.072;9.698;2023-02-28T00:08:43;102483.44;;;26.05;39.87
32642;BME280;19323;56.072;9.698;2023-02-28T00:11:09;102487.97;;;26.05;39.76
32642;BME280;19323;56.072;9.698;2023-02-28T00:13:35;102486.13;;;26.05;39.48
32642;BME280;19323;56.072;9.698;2023-02-28T00:16:03;102488.81;;;26.05;39.80
32642;BME280;19323;56.072;9.698;2023-02-28T00:18:28;102487.97;;;26.05;39.78
32642;BME280;19323;56.072;9.698;2023-02-28T00:20:54;102484.28;;;26.06;39.75
32642;BME280;19323;56.072;9.698;2023-02-28T00:23:19;102480.75;;;26.05;39.71
32642;BME280;19323;56.072;9.698;2023-02-28T00:25:44;102484.41;;;26.04;39.72
32642;BME280;19323;56.072;9.698;2023-02-28T00:28:09;102480.75;;;26.05;39.46
32642;BME280;19323;56.072;9.698;2023-02-28T00:30:34;102483.44;;;26.05;39.45
32642;BME280;19323;56.072;9.698;2023-02-28T00:32:59;102480.75;;;26.05;39.49
32642;BME280;19323;56.072;9.698;2023-02-28T00:35:25;102477.09;;;26.06;39.50
32642;BME280;19323;56.072;9.698;2023-02-28T00:37:50;102473.53;;;26.06;39.49
32642;BME280;19323;56.072;9.698;2023-02-28T00:40:15;102472.69;;;26.05;39.67
32642;BME280;19323;56.072;9.698;2023-02-28T00:42:40;102473.69;;;26.04;39.48
32642;BME280;19323;56.072;9.698;2023-02-28T00:45:05;102472.81;;;26.04;39.58
32642;BME280;19323;56.072;9.698;2023-02-28T00:47:31;102470.13;;;26.04;39.40
32642;BME280;19323;56.072;9.698;2023-02-28T00:49:56;102471.84;;;26.05;39.18
32642;BME280;19323;56.072;9.698;2023-02-28T00:52:21;102479.06;;;26.04;39.46
32642;BME280;19323;56.072;9.698;2023-02-28T00:54:46;102479.06;;;26.04;39.51
32642;BME280;19323;56.072;9.698;2023-02-28T00:57:11;102487.09;;;26.04;39.41
32642;BME280;19323;56.072;9.698;2023-02-28T00:59:37;102491.59;;;26.04;39.49
32642;BME280;19323;56.072;9.698;2023-02-28T01:02:02;102490.75;;;26.03;39.48
32642;BME280;19323;56.072;9.698;2023-02-28T01:04:27;102485.38;;;26.03;39.48
32642;BME280;19323;56.072;9.698;2023-02-28T01:06:52;102489.91;;;26.03;39.09
32642;BME280;19323;56.072;9.698;2023-02-28T01:09:17;102479.06;;;26.04;39.33
32642;BME280;19323;56.072;9.698;2023-02-28T01:11:42;102483.53;;;26.04;39.40
32642;BME280;19323;56.072;9.698;2023-02-28T01:14:09;102477.31;;;26.03;39.28
32642;BME280;19323;56.072;9.698;2023-02-28T01:16:34;102471.94;;;26.03;39.35
32642;BME280;19323;56.072;9.698;2023-02-28T01:19:00;102472.06;;;26.02;39.35
32642;BME280;19323;56.072;9.698;2023-02-28T01:21:25;102477.31;;;26.03;39.07
32642;BME280;19323;56.072;9.698;2023-02-28T01:23:50;102480.00;;;26.03;39.14
32642;BME280;19323;56.072;9.698;2023-02-28T01:26:19;102477.31;;;26.03;39.26
32642;BME280;19323;56.072;9.698;2023-02-28T01:28:45;102476.47;;;26.03;39.23
32642;BME280;19323;56.072;9.698;2023-02-28T01:31:11;102472.22;;;26.00;39.25
32642;BME280;19323;56.072;9.698;2023-02-28T01:33:36;102482.06;;;26.00;39.01
32642;BME280;19323;56.072;9.698;2023-02-28T01:36:03;102480.38;;;25.99;39.30
32642;BME280;19323;56.072;9.698;2023-02-28T01:38:28;102478.69;;;25.98;39.26
32642;BME280;19323;56.072;9.698;2023-02-28T01:40:53;102485.84;;;25.97;39.26
32642;BME280;19323;56.072;9.698;2023-02-28T01:43:20;102449.31;;;25.72;38.98
32642;BME280;19323;56.072;9.698;2023-02-28T01:45:45;102477.06;;;25.95;38.97
32642;BME280;19323;56.072;9.698;2023-02-28T01:48:10;102469.88;;;25.96;39.33
32642;BME280;19323;56.072;9.698;2023-02-28T01:50:38;102473.41;;;25.96;39.26
32642;BME280;19323;56.072;9.698;2023-02-28T01:53:05;102470.63;;;25.98;38.96
32642;BME280;19323;56.072;9.698;2023-02-28T01:55:31;102467.06;;;25.97;39.14
32642;BME280;19323;56.072;9.698;2023-02-28T01:57:58;102468.78;;;25.98;39.14
32642;BME280;19323;56.072;9.698;2023-02-28T02:00:25;102466.22;;;25.97;39.14
32642;BME280;19323;56.072;9.698;2023-02-28T02:03:16;102469.88;;;25.96;38.86
32642;BME280;19323;56.072;9.698;2023-02-28T02:05:40;102462.69;;;25.96;39.15
32642;BME280;19323;56.072;9.698;2023-02-28T02:08:27;102457.31;;;25.96;39.06
32642;BME280;19323;56.072;9.698;2023-02-28T02:10:52;102457.44;;;25.95;39.11
32642;BME280;19323;56.072;9.698;2023-02-28T02:15:48;102462.69;;;25.96;38.72
32642;BME280;19323;56.072;9.698;2023-02-28T02:24:30;102457.53;;;25.93;38.85
32642;BME280;19323;56.072;9.698;2023-02-28T02:28:56;102458.63;;;25.90;38.83
32642;BME280;19323;56.072;9.698;2023-02-28T02:34:23;102456.94;;;25.89;38.82
32642;BME280;19323;56.072;9.698;2023-02-28T02:37:09;102447.16;;;25.88;38.79
32642;BME280;19323;56.072;9.698;2023-02-28T02:39:44;102453.50;;;25.87;39.10
32642;BME280;19323;56.072;9.698;2023-02-28T02:42:14;102437.50;;;25.86;39.06
32642;BME280;19323;56.072;9.698;2023-02-28T02:44:46;102441.03;;;25.86;38.84
32642;BME280;19323;56.072;9.698;2023-02-28T02:47:14;102439.34;;;25.85;39.06
32642;BME280;19323;56.072;9.698;2023-02-28T02:49:42;102432.22;;;25.84;38.70
32642;BME280;19323;56.072;9.698;2023-02-28T02:52:10;102435.81;;;25.85;38.90
32642;BME280;19323;56.072;9.698;2023-02-28T02:54:37;102431.38;;;25.84;38.99
32642;BME280;19323;56.072;9.698;2023-02-28T02:57:08;102433.97;;;25.85;38.81
32642;BME280;19323;56.072;9.698;2023-02-28T02:59:35;102436.53;;;25.87;38.65
32642;BME280;19323;56.072;9.698;2023-02-28T03:02:01;102424.91;;;25.86;38.89
32642;BME280;19323;56.072;9.698;2023-02-28T03:04:30;102428.59;;;25.85;38.63
32642;BME280;19323;56.072;9.698;2023-02-28T03:06:57;102427.75;;;25.85;38.66
32642;BME280;19323;56.072;9.698;2023-02-28T03:09:22;102426.75;;;25.86;38.63
32642;BME280;19323;56.072;9.698;2023-02-28T03:11:48;102419.69;;;25.85;38.82
32642;BME280;19323;56.072;9.698;2023-02-28T03:16:59;102423.34;;;25.84;38.73
32642;BME280;19323;56.072;9.698;2023-02-28T03:19:29;102420.66;;;25.84;38.88
32642;BME280;19323;56.072;9.698;2023-02-28T03:24:43;102423.47;;;25.82;38.72
32642;BME280;19323;56.072;9.698;2023-02-28T03:27:11;102431.66;;;25.81;38.90
32642;BME280;19323;56.072;9.698;2023-02-28T03:29:40;102426.28;;;25.81;38.53
32642;BME280;19323;56.072;9.698;2023-02-28T03:32:11;102424.53;;;25.80;38.71
32642;BME280;19323;56.072;9.698;2023-02-28T03:34:43;102427.22;;;25.80;38.58
32642;BME280;19323;56.072;9.698;2023-02-28T03:37:12;102425.28;;;25.82;38.84
32642;BME280;19323;56.072;9.698;2023-02-28T03:39:40;102427.97;;;25.82;38.66
32642;BME280;19323;56.072;9.698;2023-02-28T03:42:09;102424.53;;;25.80;38.58
32642;BME280;19323;56.072;9.698;2023-02-28T03:44:42;102422.75;;;25.80;38.66
32642;BME280;19323;56.072;9.698;2023-02-28T03:47:13;102428.13;;;25.80;38.74
32642;BME280;19323;56.072;9.698;2023-02-28T03:52:12;102431.75;;;25.79;38.37
32642;BME280;19323;56.072;9.698;2023-02-28T03:54:43;102428.13;;;25.80;38.66
32642;BME280;19323;56.072;9.698;2023-02-28T03:57:15;102425.44;;;25.80;38.56
32642;BME280;19323;56.072;9.698;2023-02-28T04:00:28;102421.88;;;25.80;38.44
32642;BME280;19323;56.072;9.698;2023-02-28T04:02:30;102421.00;;;25.79;38.73
32642;BME280;19323;56.072;9.698;2023-02-28T04:04:56;102420.16;;;25.79;38.32
32642;BME280;19323;56.072;9.698;2023-02-28T04:07:21;102410.53;;;25.76;38.43
32642;BME280;19323;56.072;9.698;2023-02-28T04:09:46;102415.03;;;25.76;38.66
32642;BME280;19323;56.072;9.698;2023-02-28T04:12:12;102413.34;;;25.75;38.48
32642;BME280;19323;56.072;9.698;2023-02-28T04:14:37;102417.72;;;25.76;38.56
32642;BME280;19323;56.072;9.698;2023-02-28T04:17:02;102421.38;;;25.75;38.38
32642;BME280;19323;56.072;9.698;2023-02-28T04:19:27;102417.72;;;25.76;38.55
32642;BME280;19323;56.072;9.698;2023-02-28T04:21:53;102421.38;;;25.75;38.75
32642;BME280;19323;56.072;9.698;2023-02-28T04:24:20;102419.53;;;25.75;38.66
32642;BME280;19323;56.072;9.698;2023-02-28T04:26:46;102423.34;;;25.73;38.57
32642;BME280;19323;56.072;9.698;2023-02-28T04:29:13;102417.00;;;25.74;38.75
32642;BME280;19323;56.072;9.698;2023-02-28T04:31:39;102409.91;;;25.73;38.77
32642;BME280;19323;56.072;9.698;2023-02-28T04:34:04;102417.97;;;25.73;38.61
32642;BME280;19323;56.072;9.698;2023-02-28T04:36:30;102412.59;;;25.73;38.44
32642;BME280;19323;56.072;9.698;2023-02-28T04:38:55;102423.34;;;25.73;38.70
32642;BME280;19323;56.072;9.698;2023-02-28T04:41:20;102415.28;;;25.73;38.54
32642;BME280;19323;56.072;9.698;2023-02-28T04:43:45;102416.25;;;25.72;38.54
32642;BME280;19323;56.072;9.698;2023-02-28T04:46:11;102421.75;;;25.70;38.95
32642;BME280;19323;56.072;9.698;2023-02-28T04:48:37;102421.84;;;25.68;38.70
32642;BME280;19323;56.072;9.698;2023-02-28T04:51:06;102419.28;;;25.67;38.79
32642;BME280;19323;56.072;9.698;2023-02-28T04:53:32;102421.13;;;25.66;38.74
32642;BME280;19323;56.072;9.698;2023-02-28T04:55:57;102416.75;;;25.65;39.10
32642;BME280;19323;56.072;9.698;2023-02-28T04:58:23;102409.53;;;25.66;39.11
32642;BME280;19323;56.072;9.698;2023-02-28T05:00:49;102414.06;;;25.65;38.91
32642;BME280;19323;56.072;9.698;2023-02-28T05:03:14;102410.38;;;25.66;38.91
32642;BME280;19323;56.072;9.698;2023-02-28T05:05:39;102410.38;;;25.66;38.90
32642;BME280;19323;56.072;9.698;2023-02-28T05:08:04;102407.59;;;25.68;38.72
32642;BME280;19323;56.072;9.698;2023-02-28T05:10:30;102414.66;;;25.69;38.99
32642;BME280;19323;56.072;9.698;2023-02-28T05:12:55;102411.97;;;25.69;38.78
32642;BME280;19323;56.072;9.698;2023-02-28T05:15:20;102415.53;;;25.69;38.57
32642;BME280;19323;56.072;9.698;2023-02-28T05:17:46;102413.69;;;25.70;38.76
32642;BME280;19323;56.072;9.698;2023-02-28T05:20:11;102407.47;;;25.69;38.66
32642;BME280;19323;56.072;9.698;2023-02-28T05:22:38;102402.13;;;25.69;38.83
32642;BME280;19323;56.072;9.698;2023-02-28T05:25:03;102403.91;;;25.69;38.72
32642;BME280;19323;56.072;9.698;2023-02-28T05:27:29;102403.06;;;25.68;38.58
32642;BME280;19323;56.072;9.698;2023-02-28T05:29:55;102414.78;;;25.67;38.66
32642;BME280;19323;56.072;9.698;2023-02-28T05:32:20;102410.38;;;25.66;38.91
32642;BME280;19323;56.072;9.698;2023-02-28T05:34:45;102414.06;;;25.65;38.92
32642;BME280;19323;56.072;9.698;2023-02-28T05:37:12;102412.34;;;25.64;38.57
32642;BME280;19323;56.072;9.698;2023-02-28T05:39:38;102415.91;;;25.65;38.78
32642;BME280;19323;56.072;9.698;2023-02-28T05:42:03;102412.47;;;25.63;38.99
32642;BME280;19323;56.072;9.698;2023-02-28T05:44:28;102415.16;;;25.63;38.72
32642;BME280;19323;56.072;9.698;2023-02-28T05:46:54;102381.09;;;25.41;38.59
32642;BME280;19323;56.072;9.698;2023-02-28T05:49:19;102428.44;;;25.64;38.92
32642;BME280;19323;56.072;9.698;2023-02-28T05:51:44;102421.38;;;25.63;38.68
32642;BME280;19323;56.072;9.698;2023-02-28T05:54:09;102426.75;;;25.63;38.59
32642;BME280;19323;56.072;9.698;2023-02-28T05:56:34;102424.06;;;25.63;38.77
32642;BME280;19323;56.072;9.698;2023-02-28T05:59:00;102426.63;;;25.65;38.77
32642;BME280;19323;56.072;9.698;2023-02-28T06:03:58;102423.06;;;25.64;38.75
32642;BME280;19323;56.072;9.698;2023-02-28T06:06:23;102421.38;;;25.63;38.72
32642;BME280;19323;56.072;9.698;2023-02-28T06:08:48;102421.38;;;25.63;38.93
32642;BME280;19323;56.072;9.698;2023-02-28T06:11:13;102417.84;;;25.63;38.66
32642;BME280;19323;56.072;9.698;2023-02-28T06:13:39;102412.59;;;25.61;38.65
32642;BME280;19323;56.072;9.698;2023-02-28T06:16:04;102420.75;;;25.60;38.77
32642;BME280;19323;56.072;9.698;2023-02-28T06:18:30;102418.91;;;25.60;38.89
32642;BME280;19323;56.072;9.698;2023-02-28T06:20:56;102418.91;;;25.60;39.09
32642;BME280;19323;56.072;9.698;2023-02-28T06:23:21;102414.53;;;25.59;38.77
32642;BME280;19323;56.072;9.698;2023-02-28T06:25:46;102417.31;;;25.58;38.82
32642;BME280;19323;56.072;9.698;2023-02-28T06:28:12;102415.75;;;25.55;38.85
32642;BME280;19323;56.072;9.698;2023-02-28T06:30:37;102422.09;;;25.54;39.05
32642;BME280;19323;56.072;9.698;2023-02-28T06:33:03;102426.56;;;25.54;39.04
32642;BME280;19323;56.072;9.698;2023-02-28T06:35:28;102421.94;;;25.56;38.88
32642;BME280;19323;56.072;9.698;2023-02-28T06:37:54;102435.38;;;25.56;38.75
32642;BME280;19323;56.072;9.698;2023-02-28T06:40:19;102432.69;;;25.56;38.72
32642;BME280;19323;56.072;9.698;2023-02-28T06:42:44;102432.81;;;25.54;38.65
32642;BME280;19323;56.072;9.698;2023-02-28T06:45:10;102435.63;;;25.53;38.83
32642;BME280;19323;56.072;9.698;2023-02-28T06:47:36;102444.50;;;25.53;38.72
32642;BME280;19323;56.072;9.698;2023-02-28T06:50:01;102447.19;;;25.53;38.43
32642;BME280;19323;56.072;9.698;2023-02-28T06:52:26;102450.72;;;25.54;38.59
32642;BME280;19323;56.072;9.698;2023-02-28T06:54:52;102458.66;;;25.55;38.56
32642;BME280;19323;56.072;9.698;2023-02-28T06:57:25;102453.31;;;25.55;38.31
32642;BME280;19323;56.072;9.698;2023-02-28T06:59:50;102460.50;;;25.55;38.20
32642;BME280;19323;56.072;9.698;2023-02-28T07:02:15;102461.34;;;25.55;38.07
32642;BME280;19323;56.072;9.698;2023-02-28T07:04:40;102460.63;;;25.53;38.10
32642;BME280;19323;56.072;9.698;2023-02-28T07:07:09;102474.03;;;25.53;38.02
32642;BME280;19323;56.072;9.698;2023-02-28T07:09:34;102472.34;;;25.52;38.05
32642;BME280;19323;56.072;9.698;2023-02-28T07:11:59;102468.66;;;25.53;37.94
32642;BME280;19323;56.072;9.698;2023-02-28T07:14:25;102472.34;;;25.52;37.92
32642;BME280;19323;56.072;9.698;2023-02-28T07:16:50;102471.44;;;25.52;38.01
32642;BME280;19323;56.072;9.698;2023-02-28T07:19:16;102415.00;;;25.18;37.52
32642;BME280;19323;56.072;9.698;2023-02-28T07:21:41;102461.59;;;25.52;37.57
32642;BME280;19323;56.072;9.698;2023-02-28T07:24:06;102462.56;;;25.51;37.65
32642;BME280;19323;56.072;9.698;2023-02-28T07:26:31;102463.53;;;25.50;37.50
32642;BME280;19323;56.072;9.698;2023-02-28T07:28:58;102463.66;;;25.48;37.54
32642;BME280;19323;56.072;9.698;2023-02-28T07:31:24;102459.03;;;25.51;37.62
32642;BME280;19323;56.072;9.698;2023-02-28T07:33:49;102467.06;;;25.51;37.37
32642;BME280;19323;56.072;9.698;2023-02-28T07:36:16;102464.38;;;25.51;37.45
32642;BME280;19323;56.072;9.698;2023-02-28T07:38:43;102467.91;;;25.51;37.61
32642;BME280;19323;56.072;9.698;2023-02-28T07:41:09;102459.03;;;25.51;37.49
32642;BME280;19323;56.072;9.698;2023-02-28T07:43:34;102466.22;;;25.50;37.66
32642;BME280;19323;56.072;9.698;2023-02-28T07:46:03;102461.81;;;25.49;37.57
32642;BME280;19323;56.072;9.698;2023-02-28T07:48:28;102470.84;;;25.48;37.50
32642;BME280;19323;56.072;9.698;2023-02-28T07:50:57;102454.97;;;25.45;37.64
32642;BME280;19323;56.072;9.698;2023-02-28T07:53:22;102454.13;;;25.44;37.37
32642;BME280;19323;56.072;9.698;2023-02-28T07:55:47;102453.28;;;25.44;37.76
32642;BME280;19323;56.072;9.698;2023-02-28T07:58:13;102454.22;;;25.43;37.45
32642;BME280;19323;56.072;9.698;2023-02-28T08:00:38;102451.53;;;25.43;37.49
32642;BME280;19323;56.072;9.698;2023-02-28T08:03:03;102451.53;;;25.43;37.62
32642;BME280;19323;56.072;9.698;2023-02-28T08:05:28;102444.50;;;25.42;37.36
32642;BME280;19323;56.072;9.698;2023-02-28T08:07:54;102446.19;;;25.43;37.43
32642;BME280;19323;56.072;9.698;2023-02-28T08:10:20;102449.75;;;25.43;37.33
32642;BME280;19323;56.072;9.698;2023-02-28T08:12:45;102451.53;;;25.43;37.29
32642;BME280;19323;56.072;9.698;2023-02-28T08:15:10;102445.22;;;25.44;37.27
32642;BME280;19323;56.072;9.698;2023-02-28T08:17:35;102446.06;;;25.44;37.31
32642;BME280;19323;56.072;9.698;2023-02-28T08:20:00;102442.44;;;25.45;37.24
32642;BME280;19323;56.072;9.698;2023-02-28T08:22:26;102440.59;;;25.46;37.46
32642;BME280;19323;56.072;9.698;2023-02-28T08:24:51;102449.38;;;25.48;37.47
32642;BME280;19323;56.072;9.698;2023-02-28T08:27:16;102447.44;;;25.50;37.33
32642;BME280;19323;56.072;9.698;2023-02-28T08:29:42;102447.44;;;25.50;37.30
32642;BME280;19323;56.072;9.698;2023-02-28T08:32:07;102446.72;;;25.48;37.16
32642;BME280;19323;56.072;9.698;2023-02-28T08:34:32;102449.38;;;25.48;37.17
32642;BME280;19323;56.072;9.698;2023-02-28T08:36:57;102440.59;;;25.46;37.31
32642;BME280;19323;56.072;9.698;2023-02-28T08:39:22;102445.97;;;25.46;37.32
32642;BME280;19323;56.072;9.698;2023-02-28T08:41:48;102444.13;;;25.46;37.24
32642;BME280;19323;56.072;9.698;2023-02-28T08:44:13;102443.28;;;25.46;37.33
32642;BME280;19323;56.072;9.698;2023-02-28T08:46:38;102423.50;;;25.36;37.32
32642;BME280;19323;56.072;9.698;2023-02-28T08:49:03;102443.28;;;25.46;37.10
32642;BME280;19323;56.072;9.698;2023-02-28T08:51:29;102442.44;;;25.45;37.33
32642;BME280;19323;56.072;9.698;2023-02-28T08:54:00;102446.91;;;25.45;37.17
32642;BME280;19323;56.072;9.698;2023-02-28T08:56:26;102447.91;;;25.44;37.09
32642;BME280;19323;56.072;9.698;2023-02-28T08:58:51;102447.91;;;25.44;37.07
32642;BME280;19323;56.072;9.698;2023-02-28T09:01:21;102449.59;;;25.45;36.80
32642;BME280;19323;56.072;9.698;2023-02-28T09:03:47;102449.59;;;25.45;37.04
32642;BME280;19323;56.072;9.698;2023-02-28T09:06:13;102455.97;;;25.44;37.16
32642;BME280;19323;56.072;9.698;2023-02-28T09:08:39;102454.00;;;25.46;36.90
32642;BME280;19323;56.072;9.698;2023-02-28T09:11:04;102454.75;;;25.48;36.95
32642;BME280;19323;56.072;9.698;2023-02-28T09:13:29;102440.34;;;25.49;37.28
32642;BME280;19323;56.072;9.698;2023-02-28T09:15:57;102443.78;;;25.51;36.97
32642;BME280;19323;56.072;9.698;2023-02-28T09:18:22;102446.47;;;25.51;37.04
32642;BME280;19323;56.072;9.698;2023-02-28T09:20:47;102440.25;;;25.51;36.91
32642;BME280;19323;56.072;9.698;2023-02-28T09:23:14;102449.13;;;25.51;37.00
32642;BME280;19323;56.072;9.698;2023-02-28T09:25:44;102450.97;;;25.51;36.84
32642;BME280;19323;56.072;9.698;2023-02-28T09:28:10;102450.88;;;25.52;37.04
32642;BME280;19323;56.072;9.698;2023-02-28T09:30:36;102454.50;;;25.51;36.76
32642;BME280;19323;56.072;9.698;2023-02-28T09:33:01;102455.50;;;25.50;36.74
32642;BME280;19323;56.072;9.698;2023-02-28T09:35:26;102455.50;;;25.50;36.81
32642;BME280;19323;56.072;9.698;2023-02-28T09:37:52;102459.03;;;25.51;37.03
32642;BME280;19323;56.072;9.698;2023-02-28T09:40:18;102459.03;;;25.51;36.99
32642;BME280;19323;56.072;9.698;2023-02-28T09:42:46;102459.88;;;25.51;36.87
32642;BME280;19323;56.072;9.698;2023-02-28T09:45:24;102455.34;;;25.52;36.71
32642;BME280;19323;56.072;9.698;2023-02-28T09:47:51;102450.88;;;25.52;36.86
32642;BME280;19323;56.072;9.698;2023-02-28T09:53:04;102454.28;;;25.54;36.78
32642;BME280;19323;56.072;9.698;2023-02-28T09:55:36;102455.88;;;25.57;36.83
32642;BME280;19323;56.072;9.698;2023-02-28T09:58:04;102455.03;;;25.56;36.79
32642;BME280;19323;56.072;9.698;2023-02-28T10:00:32;102450.50;;;25.57;36.87
32642;BME280;19323;56.072;9.698;2023-02-28T10:03:15;102444.28;;;25.56;36.79
32642;BME280;19323;56.072;9.698;2023-02-28T10:10:48;102449.66;;;25.56;36.88
32642;BME280;19323;56.072;9.698;2023-02-28T10:15:51;102449.66;;;25.56;37.29
32642;BME280;19323;56.072;9.698;2023-02-28T10:18:20;102444.16;;;25.58;37.35
32642;BME280;19323;56.072;9.698;2023-02-28T10:20:46;102450.16;;;25.61;37.07
32642;BME280;19323;56.072;9.698;2023-02-28T10:26:00;102451.25;;;25.70;37.05
32642;BME280;19323;56.072;9.698;2023-02-28T10:28:26;102456.28;;;25.75;37.02
32642;BME280;19323;56.072;9.698;2023-02-28T10:30:53;102450.66;;;25.78;36.95
32642;BME280;19323;56.072;9.698;2023-02-28T10:35:51;102454.59;;;25.85;37.04
32642;BME280;19323;56.072;9.698;2023-02-28T10:38:18;102452.53;;;25.88;37.06
32642;BME280;19323;56.072;9.698;2023-02-28T10:40:45;102456.84;;;25.91;37.00
32642;BME280;19323;56.072;9.698;2023-02-28T10:45:38;102451.47;;;25.91;36.93
32642;BME280;19323;56.072;9.698;2023-02-28T10:50:44;102455.84;;;25.92;37.19
32642;BME280;19323;56.072;9.698;2023-02-28T10:55:35;102457.53;;;25.93;37.25
32642;BME280;19323;56.072;9.698;2023-02-28T10:58:01;102456.69;;;25.93;37.08
32642;BME280;19323;56.072;9.698;2023-02-28T11:00:26;102455.72;;;25.94;37.12
32642;BME280;19323;56.072;9.698;2023-02-28T11:02:56;102452.91;;;25.95;36.89
32642;BME280;19323;56.072;9.698;2023-02-28T11:05:26;102450.09;;;25.97;36.95
32642;BME280;19323;56.072;9.698;2023-02-28T11:07:52;102450.00;;;25.98;36.88
32642;BME280;19323;56.072;9.698;2023-02-28T11:10:19;102447.16;;;26.00;37.21
32642;BME280;19323;56.072;9.698;2023-02-28T11:12:45;102451.47;;;26.02;37.14
32642;BME280;19323;56.072;9.698;2023-02-28T11:15:24;102438.78;;;26.04;37.22
32642;BME280;19323;56.072;9.698;2023-02-28T11:17:58;102439.50;;;26.06;36.99
32642;BME280;19323;56.072;9.698;2023-02-28T11:20:25;102442.91;;;26.08;37.29
32642;BME280;19323;56.072;9.698;2023-02-28T11:22:51;102439.13;;;26.11;37.35
32642;BME280;19323;56.072;9.698;2023-02-28T11:25:24;102435.34;;;26.14;37.33
32642;BME280;19323;56.072;9.698;2023-02-28T11:27:50;102430.56;;;26.17;37.37
32642;BME280;19323;56.072;9.698;2023-02-28T11:30:23;102423.25;;;26.19;37.29
32642;BME280;19323;56.072;9.698;2023-02-28T11:32:48;102433.75;;;26.22;37.03
32642;BME280;19323;56.072;9.698;2023-02-28T11:35:17;102432.66;;;26.25;37.42
32642;BME280;19323;56.072;9.698;2023-02-28T11:37:42;102431.66;;;26.26;37.49
32642;BME280;19323;56.072;9.698;2023-02-28T11:40:14;102429.84;;;26.26;37.14
32642;BME280;19323;56.072;9.698;2023-02-28T11:53:05;102418.34;;;26.36;37.53
32642;BME280;19323;56.072;9.698;2023-02-28T11:55:36;102411.16;;;26.36;37.38
32642;BME280;19323;56.072;9.698;2023-02-28T11:58:05;102410.19;;;26.37;37.37
32642;BME280;19323;56.072;9.698;2023-02-28T12:00:57;102406.50;;;26.38;37.73
32642;BME280;19323;56.072;9.698;2023-02-28T12:11:02;102393.69;;;26.42;37.48
32642;BME280;19323;56.072;9.698;2023-02-28T12:13:37;102388.16;;;26.43;37.55
32642;BME280;19323;56.072;9.698;2023-02-28T12:21:04;102378.88;;;26.47;37.51
32642;BME280;19323;56.072;9.698;2023-02-28T12:28:42;102364.31;;;26.50;37.69
32642;BME280;19323;56.072;9.698;2023-02-28T12:33:34;102367.91;;;26.50;37.50
32642;BME280;19323;56.072;9.698;2023-02-28T12:36:03;102359.69;;;26.52;37.47
32642;BME280;19323;56.072;9.698;2023-02-28T12:38:41;102357.88;;;26.52;37.43
32642;BME280;19323;56.072;9.698;2023-02-28T12:41:19;102360.56;;;26.52;37.45
32642;BME280;19323;56.072;9.698;2023-02-28T12:43:49;102368.47;;;26.54;37.39
32642;BME280;19323;56.072;9.698;2023-02-28T12:46:21;102376.44;;;26.56;37.47
32642;BME280;19323;56.072;9.698;2023-02-28T12:48:50;102357.53;;;26.57;37.80
32642;BME280;19323;56.072;9.698;2023-02-28T12:51:17;102358.38;;;26.58;37.47
32642;BME280;19323;56.072;9.698;2023-02-28T12:58:43;102346.41;;;26.50;37.42
32642;BME280;19323;56.072;9.698;2023-02-28T13:06:13;102362.97;;;26.67;37.78
32642;BME280;19323;56.072;9.698;2023-02-28T13:11:28;102357.09;;;26.73;37.64
32642;BME280;19323;56.072;9.698;2023-02-28T13:14:02;102352.56;;;26.74;37.78
32642;BME280;19323;56.072;9.698;2023-02-28T13:16:28;102342.66;;;26.74;37.60
32642;BME280;19323;56.072;9.698;2023-02-28T13:19:15;102346.06;;;26.76;37.68
32642;BME280;19323;56.072;9.698;2023-02-28T13:21:42;102350.47;;;26.77;37.66
32642;BME280;19323;56.072;9.698;2023-02-28T13:24:09;102349.34;;;26.80;37.61
32642;BME280;19323;56.072;9.698;2023-02-28T13:32:18;102339.66;;;26.88;38.01
32642;BME280;19323;56.072;9.698;2023-02-28T13:34:33;102345.66;;;26.92;37.97
32642;BME280;19323;56.072;9.698;2023-02-28T13:45:33;102337.75;;;27.00;37.88
32642;BME280;19323;56.072;9.698;2023-02-28T13:47:51;102335.78;;;27.02;37.65
32642;BME280;19323;56.072;9.698;2023-02-28T13:52:52;102338.09;;;27.07;37.33
32642;BME280;19323;56.072;9.698;2023-02-28T13:55:24;102335.16;;;27.10;37.77
32642;BME280;19323;56.072;9.698;2023-02-28T14:03:12;102334.34;;;27.19;37.77
32642;BME280;19323;56.072;9.698;2023-02-28T14:05:40;102333.38;;;27.20;37.39
32642;BME280;19323;56.072;9.698;2023-02-28T14:08:07;102334.13;;;27.22;37.05
32642;BME280;19323;56.072;9.698;2023-02-28T14:10:45;102327.75;;;27.23;37.40
32642;BME280;19323;56.072;9.698;2023-02-28T14:15:56;102334.59;;;27.27;37.53
32642;BME280;19323;56.072;9.698;2023-02-28T14:20:52;102336.03;;;27.31;37.50
32642;BME280;19323;56.072;9.698;2023-02-28T14:26:29;102329.25;;;27.37;36.98
32642;BME280;19323;56.072;9.698;2023-02-28T14:31:43;102310.59;;;27.45;37.27
32642;BME280;19323;56.072;9.698;2023-02-28T14:36:43;102323.53;;;27.51;37.05
32642;BME280;19323;56.072;9.698;2023-02-28T14:39:11;102313.34;;;27.55;37.16
32642;BME280;19323;56.072;9.698;2023-02-28T14:41:39;102316.59;;;27.59;36.90
32642;BME280;19323;56.072;9.698;2023-02-28T14:44:14;102313.66;;;27.62;37.26
32642;BME280;19323;56.072;9.698;2023-02-28T14:46:41;102315.06;;;27.66;37.03
32642;BME280;19323;56.072;9.698;2023-02-28T14:49:07;102312.13;;;27.69;37.04
32642;BME280;19323;56.072;9.698;2023-02-28T14:51:37;102311.84;;;27.72;36.85
32642;BME280;19323;56.072;9.698;2023-02-28T14:54:02;102312.44;;;27.76;36.91
32642;BME280;19323;56.072;9.698;2023-02-28T14:56:35;102305.06;;;27.78;37.18